sensor_id;sensor_type;location;lat;lon;timestamp;pressure;altitude;pressure_sealevel;temperature;humidity
21742;BME280;11033;47.490;11.116;2022-08-14T00:00:17;92997.22;;;15.51;65.35
21742;BME280;11033;47.490;11.116;2022-08-14T00:02:43;92996.81;;;15.18;67.54
21742;BME280;11033;47.490;11.116;2022-08-14T00:05:11;93004.09;;;15.22;67.58
21742;BME280;11033;47.490;11.116;2022-08-14T00:07:38;93006.31;;;15.26;65.49
21742;BME280;11033;47.490;11.116;2022-08-14T00:10:05;92998.13;;;15.09;67.95
21742;BME280;11033;47.490;11.116;2022-08-14T00:12:33;92987.38;;;15.22;64.99
21742;BME280;11033;47.490;11.116;2022-08-14T00:14:59;92988.47;;;15.33;63.07
21742;BME280;11033;47.490;11.116;2022-08-14T00:17:24;92988.19;;;15.22;64.99
21742;BME280;11033;47.490;11.116;2022-08-14T00:19:51;92988.47;;;15.14;66.83
21742;BME280;11033;47.490;11.116;2022-08-14T00:22:16;92983.31;;;15.19;65.33
21742;BME280;11033;47.490;11.116;2022-08-14T00:24:43;92965.56;;;15.02;67.59
21742;BME280;11033;47.490;11.116;2022-08-14T00:27:09;92969.91;;;15.14;66.19
21742;BME280;11033;47.490;11.116;2022-08-14T00:29:35;92957.66;;;15.13;65.06
21742;BME280;11033;47.490;11.116;2022-08-14T00:32:01;92961.66;;;15.04;66.36
21742;BME280;11033;47.490;11.116;2022-08-14T00:34:27;92963.56;;;14.97;67.19
21742;BME280;11033;47.490;11.116;2022-08-14T00:36:52;92966.22;;;15.15;64.68
21742;BME280;11033;47.490;11.116;2022-08-14T00:39:17;92966.03;;;14.92;66.20
21742;BME280;11033;47.490;11.116;2022-08-14T00:41:43;92964.16;;;14.99;67.07
21742;BME280;11033;47.490;11.116;2022-08-14T00:44:09;92966.03;;;14.92;66.02
21742;BME280;11033;47.490;11.116;2022-08-14T00:46:36;92963.56;;;14.97;65.13
21742;BME280;11033;47.490;11.116;2022-08-14T00:49:01;92969.78;;;14.84;67.08
21742;BME280;11033;47.490;11.116;2022-08-14T00:51:27;92964.88;;;14.88;67.12
21742;BME280;11033;47.490;11.116;2022-08-14T00:53:57;92960.44;;;14.82;65.84
21742;BME280;11033;47.490;11.116;2022-08-14T00:56:23;92954.09;;;14.83;66.84
21742;BME280;11033;47.490;11.116;2022-08-14T00:58:49;92957.94;;;14.87;nan
21742;BME280;11033;47.490;11.116;2022-08-14T01:01:14;92953.16;;;14.77;68.59
21742;BME280;11033;47.490;11.116;2022-08-14T01:03:43;92944.22;;;14.72;66.55
21742;BME280;11033;47.490;11.116;2022-08-14T01:06:11;92949.97;;;14.69;66.22
21742;BME280;11033;47.490;11.116;2022-08-14T01:08:37;92942.31;;;14.61;68.00
21742;BME280;11033;47.490;11.116;2022-08-14T01:11:04;92940.31;;;14.74;68.16
21742;BME280;11033;47.490;11.116;2022-08-14T01:13:36;92943.41;;;14.71;67.78
21742;BME280;11033;47.490;11.116;2022-08-14T01:16:07;92941.66;;;14.65;68.54
21742;BME280;11033;47.490;11.116;2022-08-14T01:18:33;92932.16;;;14.76;67.44
21742;BME280;11033;47.490;11.116;2022-08-14T01:21:23;92933.31;;;14.62;67.74
21742;BME280;11033;47.490;11.116;2022-08-14T01:23:49;92923.75;;;14.61;66.37
21742;BME280;11033;47.490;11.116;2022-08-14T01:26:18;92918.66;;;14.59;66.40
21742;BME280;11033;47.490;11.116;2022-08-14T01:28:46;92918.16;;;14.69;65.40
21742;BME280;11033;47.490;11.116;2022-08-14T01:31:15;92910.63;;;14.47;68.33
21742;BME280;11033;47.490;11.116;2022-08-14T01:33:43;92906.19;;;14.41;68.82
21742;BME280;11033;47.490;11.116;2022-08-14T01:36:11;92896.59;;;14.40;69.34
21742;BME280;11033;47.490;11.116;2022-08-14T01:38:38;92894.28;;;14.50;67.16
21742;BME280;11033;47.490;11.116;2022-08-14T01:41:06;92897.09;;;14.55;67.42
21742;BME280;11033;47.490;11.116;2022-08-14T01:43:40;92894.41;;;14.37;68.76
21742;BME280;11033;47.490;11.116;2022-08-14T01:46:06;92891.16;;;14.35;68.50
21742;BME280;11033;47.490;11.116;2022-08-14T01:48:36;92893.09;;;14.46;67.09
21742;BME280;11033;47.490;11.116;2022-08-14T01:51:06;92894.97;;;14.39;68.48
21742;BME280;11033;47.490;11.116;2022-08-14T01:53:32;92895.16;;;14.44;69.40
21742;BME280;11033;47.490;11.116;2022-08-14T01:56:02;92901.31;;;14.38;68.13
21742;BME280;11033;47.490;11.116;2022-08-14T01:58:28;92891.16;;;14.35;66.90
21742;BME280;11033;47.490;11.116;2022-08-14T02:00:54;92889.56;;;14.27;68.86
21742;BME280;11033;47.490;11.116;2022-08-14T02:03:21;92877.72;;;14.30;69.02
21742;BME280;11033;47.490;11.116;2022-08-14T02:05:47;92878.50;;;14.37;67.21
21742;BME280;11033;47.490;11.116;2022-08-14T02:08:13;92871.63;;;14.29;69.23
21742;BME280;11033;47.490;11.116;2022-08-14T02:10:40;92868.50;;;14.39;67.40
21742;BME280;11033;47.490;11.116;2022-08-14T02:13:06;92866.72;;;14.33;67.72
21742;BME280;11033;47.490;11.116;2022-08-14T02:15:33;92862.66;;;14.31;67.65
21742;BME280;11033;47.490;11.116;2022-08-14T02:17:58;92856.16;;;14.26;69.04
21742;BME280;11033;47.490;11.116;2022-08-14T02:20:29;92854.31;;;14.27;68.29
21742;BME280;11033;47.490;11.116;2022-08-14T02:22:58;92847.41;;;14.26;67.82
21742;BME280;11033;47.490;11.116;2022-08-14T02:25:23;92850.47;;;14.23;69.44
21742;BME280;11033;47.490;11.116;2022-08-14T02:27:48;92847.47;;;14.19;67.58
21742;BME280;11033;47.490;11.116;2022-08-14T02:30:14;92843.25;;;14.12;70.70
21742;BME280;11033;47.490;11.116;2022-08-14T02:32:39;92839.16;;;14.16;68.71
21742;BME280;11033;47.490;11.116;2022-08-14T02:35:08;92836.34;;;14.11;69.67
21742;BME280;11033;47.490;11.116;2022-08-14T02:37:37;92829.13;;;14.00;69.75
21742;BME280;11033;47.490;11.116;2022-08-14T02:40:05;92831.91;;;14.05;69.70
21742;BME280;11033;47.490;11.116;2022-08-14T02:42:30;92826.03;;;14.03;69.45
21742;BME280;11033;47.490;11.116;2022-08-14T02:44:57;92822.47;;;13.90;69.54
21742;BME280;11033;47.490;11.116;2022-08-14T02:47:22;92817.94;;;13.98;70.15
21742;BME280;11033;47.490;11.116;2022-08-14T02:49:48;92815.59;;;14.08;68.60
21742;BME280;11033;47.490;11.116;2022-08-14T02:52:13;92818.59;;;13.93;71.32
21742;BME280;11033;47.490;11.116;2022-08-14T02:54:39;92825.88;;;13.98;69.93
21742;BME280;11033;47.490;11.116;2022-08-14T02:57:04;92820.44;;;13.92;69.66
21742;BME280;11033;47.490;11.116;2022-08-14T02:59:31;92824.41;;;14.02;68.47
21742;BME280;11033;47.490;11.116;2022-08-14T03:01:57;92819.78;;;13.97;69.41
21742;BME280;11033;47.490;11.116;2022-08-14T03:04:23;92820.59;;;13.98;69.87
21742;BME280;11033;47.490;11.116;2022-08-14T03:06:52;92816.03;;;14.05;69.64
21742;BME280;11033;47.490;11.116;2022-08-14T03:09:17;92817.06;;;14.04;68.63
21742;BME280;11033;47.490;11.116;2022-08-14T03:11:43;92825.13;;;13.90;69.34
21742;BME280;11033;47.490;11.116;2022-08-14T03:14:09;92834.03;;;13.96;70.48
21742;BME280;11033;47.490;11.116;2022-08-14T03:16:37;92826.31;;;13.94;71.27
21742;BME280;11033;47.490;11.116;2022-08-14T03:19:03;92824.19;;;14.03;68.30
21742;BME280;11033;47.490;11.116;2022-08-14T03:21:31;92824.63;;;14.00;68.82
21742;BME280;11033;47.490;11.116;2022-08-14T03:23:57;92827.19;;;13.88;71.63
21742;BME280;11033;47.490;11.116;2022-08-14T03:26:45;92824.25;;;13.96;69.65
21742;BME280;11033;47.490;11.116;2022-08-14T03:29:13;92809.63;;;13.94;69.59
21742;BME280;11033;47.490;11.116;2022-08-14T03:31:39;92802.34;;;13.89;71.39
21742;BME280;11033;47.490;11.116;2022-08-14T03:34:07;92797.25;;;13.88;69.46
21742;BME280;11033;47.490;11.116;2022-08-14T03:36:37;92796.75;;;13.98;68.02
21742;BME280;11033;47.490;11.116;2022-08-14T03:39:06;92797.53;;;13.80;71.83
21742;BME280;11033;47.490;11.116;2022-08-14T03:41:32;92794.97;;;13.91;69.42
21742;BME280;11033;47.490;11.116;2022-08-14T03:43:59;92797.47;;;13.86;70.19
21742;BME280;11033;47.490;11.116;2022-08-14T03:46:26;92788.19;;;13.77;70.27
21742;BME280;11033;47.490;11.116;2022-08-14T03:48:53;92796.66;;;13.86;69.90
21742;BME280;11033;47.490;11.116;2022-08-14T03:51:19;92798.03;;;13.70;72.17
21742;BME280;11033;47.490;11.116;2022-08-14T03:53:46;92798.19;;;13.75;69.89
21742;BME280;11033;47.490;11.116;2022-08-14T03:56:13;92801.13;;;13.67;72.31
21742;BME280;11033;47.490;11.116;2022-08-14T03:58:41;92805.31;;;13.75;70.17
21742;BME280;11033;47.490;11.116;2022-08-14T04:01:10;92800.03;;;13.75;69.73
21742;BME280;11033;47.490;11.116;2022-08-14T04:03:35;92796.63;;;13.68;72.48
21742;BME280;11033;47.490;11.116;2022-08-14T04:06:01;92787.00;;;13.73;70.74
21742;BME280;11033;47.490;11.116;2022-08-14T04:08:26;92783.72;;;13.78;70.17
21742;BME280;11033;47.490;11.116;2022-08-14T04:10:53;92787.75;;;13.80;68.85
21742;BME280;11033;47.490;11.116;2022-08-14T04:13:19;92782.16;;;13.70;71.46
21742;BME280;11033;47.490;11.116;2022-08-14T04:15:44;92783.34;;;13.74;69.41
21742;BME280;11033;47.490;11.116;2022-08-14T04:18:10;92785.16;;;13.74;69.33
21742;BME280;11033;47.490;11.116;2022-08-14T04:20:37;92776.94;;;13.57;72.34
21742;BME280;11033;47.490;11.116;2022-08-14T04:23:03;92780.91;;;13.73;70.03
21742;BME280;11033;47.490;11.116;2022-08-14T04:25:31;92783.78;;;13.64;72.39
21742;BME280;11033;47.490;11.116;2022-08-14T04:28:04;92785.03;;;13.62;71.82
21742;BME280;11033;47.490;11.116;2022-08-14T04:30:31;92787.22;;;13.72;71.87
21742;BME280;11033;47.490;11.116;2022-08-14T04:32:57;92779.59;;;13.82;70.28
21742;BME280;11033;47.490;11.116;2022-08-14T04:35:22;92773.78;;;13.73;70.21
21742;BME280;11033;47.490;11.116;2022-08-14T04:37:47;92765.41;;;13.76;71.02
21742;BME280;11033;47.490;11.116;2022-08-14T04:40:31;92763.34;;;13.78;70.42
21742;BME280;11033;47.490;11.116;2022-08-14T04:43:15;92767.38;;;13.81;69.55
21742;BME280;11033;47.490;11.116;2022-08-14T04:46:00;92758.91;;;13.72;71.96
21742;BME280;11033;47.490;11.116;2022-08-14T04:48:26;92747.75;;;13.88;69.85
21742;BME280;11033;47.490;11.116;2022-08-14T04:50:52;92746.56;;;13.84;72.49
21742;BME280;11033;47.490;11.116;2022-08-14T04:53:22;92741.22;;;13.91;70.65
21742;BME280;11033;47.490;11.116;2022-08-14T04:55:48;92739.09;;;14.00;70.32
21742;BME280;11033;47.490;11.116;2022-08-14T04:58:25;92745.63;;;13.97;69.43
21742;BME280;11033;47.490;11.116;2022-08-14T05:00:51;92748.78;;;14.06;69.32
21742;BME280;11033;47.490;11.116;2022-08-14T05:03:17;92737.75;;;14.09;69.71
21742;BME280;11033;47.490;11.116;2022-08-14T05:05:50;92740.63;;;14.07;68.94
21742;BME280;11033;47.490;11.116;2022-08-14T05:08:17;92730.19;;;14.12;69.65
21742;BME280;11033;47.490;11.116;2022-08-14T05:10:45;92729.50;;;14.17;69.96
21742;BME280;11033;47.490;11.116;2022-08-14T05:13:11;92731.66;;;14.08;70.96
21742;BME280;11033;47.490;11.116;2022-08-14T05:15:39;92733.25;;;14.09;71.12
21742;BME280;11033;47.490;11.116;2022-08-14T05:18:12;92738.41;;;14.22;69.77
21742;BME280;11033;47.490;11.116;2022-08-14T05:20:43;92745.63;;;14.34;69.45
21742;BME280;11033;47.490;11.116;2022-08-14T05:23:11;92748.13;;;14.28;70.49
21742;BME280;11033;47.490;11.116;2022-08-14T05:25:36;92747.47;;;14.33;69.77
21742;BME280;11033;47.490;11.116;2022-08-14T05:28:22;92754.94;;;14.43;69.23
21742;BME280;11033;47.490;11.116;2022-08-14T05:30:52;92759.34;;;14.49;69.54
21742;BME280;11033;47.490;11.116;2022-08-14T05:33:21;92758.66;;;14.53;69.55
21742;BME280;11033;47.490;11.116;2022-08-14T05:35:49;92758.00;;;14.58;68.45
21742;BME280;11033;47.490;11.116;2022-08-14T05:38:17;92757.69;;;14.66;68.63
21742;BME280;11033;47.490;11.116;2022-08-14T05:40:43;92759.09;;;14.69;68.80
21742;BME280;11033;47.490;11.116;2022-08-14T05:43:09;92748.03;;;14.72;68.01
21742;BME280;11033;47.490;11.116;2022-08-14T05:45:35;92747.13;;;14.78;68.46
21742;BME280;11033;47.490;11.116;2022-08-14T05:48:01;92752.44;;;14.78;68.99
21742;BME280;11033;47.490;11.116;2022-08-14T05:50:27;92749.59;;;14.91;68.37
21742;BME280;11033;47.490;11.116;2022-08-14T05:52:52;92754.59;;;14.99;67.66
21742;BME280;11033;47.490;11.116;2022-08-14T05:55:19;92759.59;;;15.07;68.53
21742;BME280;11033;47.490;11.116;2022-08-14T05:58:05;92758.09;;;15.11;67.68
21742;BME280;11033;47.490;11.116;2022-08-14T06:00:33;92758.69;;;15.13;69.45
21742;BME280;11033;47.490;11.116;2022-08-14T06:03:00;92748.91;;;15.26;69.05
21742;BME280;11033;47.490;11.116;2022-08-14T06:05:26;92750.50;;;15.27;68.35
21742;BME280;11033;47.490;11.116;2022-08-14T06:07:52;92749.72;;;15.38;68.11
21742;BME280;11033;47.490;11.116;2022-08-14T06:10:18;92753.06;;;15.45;67.92
21742;BME280;11033;47.490;11.116;2022-08-14T06:12:43;92751.47;;;15.44;69.72
21742;BME280;11033;47.490;11.116;2022-08-14T06:15:10;92748.00;;;15.55;68.62
21742;BME280;11033;47.490;11.116;2022-08-14T06:17:43;92752.47;;;15.61;69.50
21742;BME280;11033;47.490;11.116;2022-08-14T06:20:09;92745.88;;;15.64;69.79
21742;BME280;11033;47.490;11.116;2022-08-14T06:22:34;92740.81;;;15.74;67.70
21742;BME280;11033;47.490;11.116;2022-08-14T06:25:00;92727.97;;;15.82;67.44
21742;BME280;11033;47.490;11.116;2022-08-14T06:27:25;92729.59;;;15.95;66.56
21742;BME280;11033;47.490;11.116;2022-08-14T06:29:50;92725.53;;;16.04;67.31
21742;BME280;11033;47.490;11.116;2022-08-14T06:32:15;92715.59;;;16.11;66.97
21742;BME280;11033;47.490;11.116;2022-08-14T06:34:41;92714.41;;;16.19;67.17
21742;BME280;11033;47.490;11.116;2022-08-14T06:37:06;92707.59;;;16.23;67.13
21742;BME280;11033;47.490;11.116;2022-08-14T06:39:31;92703.78;;;16.31;66.41
21742;BME280;11033;47.490;11.116;2022-08-14T06:41:58;92708.97;;;16.37;66.72
21742;BME280;11033;47.490;11.116;2022-08-14T06:44:23;92697.94;;;16.45;67.05
21742;BME280;11033;47.490;11.116;2022-08-14T06:46:49;92692.59;;;16.57;66.33
21742;BME280;11033;47.490;11.116;2022-08-14T06:49:14;92695.72;;;16.66;67.62
21742;BME280;11033;47.490;11.116;2022-08-14T06:51:39;92697.41;;;16.72;67.11
21742;BME280;11033;47.490;11.116;2022-08-14T06:54:11;92693.31;;;16.81;66.92
21742;BME280;11033;47.490;11.116;2022-08-14T06:56:37;92691.72;;;16.80;67.86
21742;BME280;11033;47.490;11.116;2022-08-14T06:59:02;92680.31;;;16.96;67.13
21742;BME280;11033;47.490;11.116;2022-08-14T07:01:27;92678.88;;;17.05;67.34
21742;BME280;11033;47.490;11.116;2022-08-14T07:04:11;92684.94;;;17.18;67.22
21742;BME280;11033;47.490;11.116;2022-08-14T07:06:55;92678.72;;;17.29;66.17
21742;BME280;11033;47.490;11.116;2022-08-14T07:09:20;92679.44;;;17.41;65.83
21742;BME280;11033;47.490;11.116;2022-08-14T07:11:46;92662.31;;;17.54;64.75
21742;BME280;11033;47.490;11.116;2022-08-14T07:14:11;92659.50;;;17.60;65.29
21742;BME280;11033;47.490;11.116;2022-08-14T07:16:36;92656.53;;;17.73;63.89
21742;BME280;11033;47.490;11.116;2022-08-14T07:19:02;92660.31;;;17.78;63.83
21742;BME280;11033;47.490;11.116;2022-08-14T07:21:27;92651.34;;;17.84;64.22
21742;BME280;11033;47.490;11.116;2022-08-14T07:23:52;92647.69;;;17.90;62.56
21742;BME280;11033;47.490;11.116;2022-08-14T07:26:17;92636.03;;;17.96;62.56
21742;BME280;11033;47.490;11.116;2022-08-14T07:28:43;92647.13;;;18.10;61.92
21742;BME280;11033;47.490;11.116;2022-08-14T07:31:10;92642.44;;;18.17;62.08
21742;BME280;11033;47.490;11.116;2022-08-14T07:33:39;92641.88;;;18.36;61.74
21742;BME280;11033;47.490;11.116;2022-08-14T07:36:07;92639.69;;;18.55;60.13
21742;BME280;11033;47.490;11.116;2022-08-14T07:38:33;92628.72;;;18.52;60.00
21742;BME280;11033;47.490;11.116;2022-08-14T07:41:00;92626.47;;;18.65;60.16
21742;BME280;11033;47.490;11.116;2022-08-14T07:43:25;92629.97;;;18.66;60.64
21742;BME280;11033;47.490;11.116;2022-08-14T07:45:51;92624.50;;;18.83;59.90
21742;BME280;11033;47.490;11.116;2022-08-14T07:48:16;92619.69;;;18.80;59.96
21742;BME280;11033;47.490;11.116;2022-08-14T07:50:42;92616.75;;;18.81;60.13
21742;BME280;11033;47.490;11.116;2022-08-14T07:53:07;92617.94;;;18.90;60.41
21742;BME280;11033;47.490;11.116;2022-08-14T07:55:33;92617.50;;;19.04;58.44
21742;BME280;11033;47.490;11.116;2022-08-14T07:58:00;92616.53;;;19.15;57.35
21742;BME280;11033;47.490;11.116;2022-08-14T08:00:25;92611.19;;;19.15;58.48
21742;BME280;11033;47.490;11.116;2022-08-14T08:02:54;92608.63;;;19.30;56.75
21742;BME280;11033;47.490;11.116;2022-08-14T08:05:21;92618.56;;;19.35;56.39
21742;BME280;11033;47.490;11.116;2022-08-14T08:07:48;92613.53;;;19.43;56.10
21742;BME280;11033;47.490;11.116;2022-08-14T08:13:17;92615.56;;;19.58;56.55
21742;BME280;11033;47.490;11.116;2022-08-14T08:15:46;92615.09;;;19.71;55.78
21742;BME280;11033;47.490;11.116;2022-08-14T08:18:13;92626.13;;;19.85;55.90
21742;BME280;11033;47.490;11.116;2022-08-14T08:20:41;92617.56;;;19.83;56.05
21742;BME280;11033;47.490;11.116;2022-08-14T08:23:07;92609.06;;;19.91;55.73
21742;BME280;11033;47.490;11.116;2022-08-14T08:25:38;92610.41;;;19.93;56.18
21742;BME280;11033;47.490;11.116;2022-08-14T08:28:12;92612.16;;;20.20;54.93
21742;BME280;11033;47.490;11.116;2022-08-14T08:30:40;92606.81;;;20.20;55.29
21742;BME280;11033;47.490;11.116;2022-08-14T08:33:07;92600.66;;;20.24;54.33
21742;BME280;11033;47.490;11.116;2022-08-14T08:35:35;92600.41;;;20.26;54.97
21742;BME280;11033;47.490;11.116;2022-08-14T08:38:06;92601.22;;;20.32;54.64
21742;BME280;11033;47.490;11.116;2022-08-14T08:40:37;92604.56;;;20.64;51.37
21742;BME280;11033;47.490;11.116;2022-08-14T08:48:28;92599.78;;;20.86;50.61
21742;BME280;11033;47.490;11.116;2022-08-14T08:50:56;92593.91;;;20.89;51.46
21742;BME280;11033;47.490;11.116;2022-08-14T08:53:22;92587.22;;;20.92;51.87
21742;BME280;11033;47.490;11.116;2022-08-14T08:55:47;92581.63;;;21.29;47.79
21742;BME280;11033;47.490;11.116;2022-08-14T08:58:17;92573.28;;;21.41;46.34
21742;BME280;11033;47.490;11.116;2022-08-14T09:00:48;92579.22;;;21.28;47.92
21742;BME280;11033;47.490;11.116;2022-08-14T09:03:20;92571.97;;;21.33;47.23
21742;BME280;11033;47.490;11.116;2022-08-14T09:05:52;92571.44;;;21.46;48.01
21742;BME280;11033;47.490;11.116;2022-08-14T09:08:20;92568.47;;;21.53;46.87
21742;BME280;11033;47.490;11.116;2022-08-14T09:10:46;92566.56;;;21.74;47.09
21742;BME280;11033;47.490;11.116;2022-08-14T09:13:15;92568.69;;;21.82;45.50
21742;BME280;11033;47.490;11.116;2022-08-14T09:15:42;92574.25;;;21.96;45.09
21742;BME280;11033;47.490;11.116;2022-08-14T09:18:10;92564.88;;;21.93;47.10
21742;BME280;11033;47.490;11.116;2022-08-14T09:20:38;92564.34;;;21.96;46.87
21742;BME280;11033;47.490;11.116;2022-08-14T09:23:04;92578.28;;;22.03;48.01
21742;BME280;11033;47.490;11.116;2022-08-14T09:25:30;92578.56;;;22.12;48.61
21742;BME280;11033;47.490;11.116;2022-08-14T09:27:55;92567.06;;;22.56;43.83
21742;BME280;11033;47.490;11.116;2022-08-14T09:30:20;92568.13;;;22.60;43.98
21742;BME280;11033;47.490;11.116;2022-08-14T09:44:05;92562.94;;;23.18;46.51
21742;BME280;11033;47.490;11.116;2022-08-14T09:46:34;92557.63;;;23.42;45.72
21742;BME280;11033;47.490;11.116;2022-08-14T09:49:01;92558.03;;;23.59;45.54
21742;BME280;11033;47.490;11.116;2022-08-14T09:51:27;92553.47;;;23.83;43.75
21742;BME280;11033;47.490;11.116;2022-08-14T09:54:00;92546.50;;;23.82;44.45
21742;BME280;11033;47.490;11.116;2022-08-14T09:56:26;92542.59;;;23.93;44.15
21742;BME280;11033;47.490;11.116;2022-08-14T09:58:51;92538.47;;;24.25;42.52
21742;BME280;11033;47.490;11.116;2022-08-14T10:01:19;92538.47;;;24.49;42.27
21742;BME280;11033;47.490;11.116;2022-08-14T10:03:53;92539.78;;;24.51;42.85
21742;BME280;11033;47.490;11.116;2022-08-14T10:06:22;92537.75;;;24.62;41.74
21742;BME280;11033;47.490;11.116;2022-08-14T10:13:48;92523.09;;;25.24;36.54
21742;BME280;11033;47.490;11.116;2022-08-14T10:16:17;92518.38;;;25.16;40.37
21742;BME280;11033;47.490;11.116;2022-08-14T10:18:43;92507.38;;;25.45;40.63
21742;BME280;11033;47.490;11.116;2022-08-14T10:21:14;92503.25;;;25.67;39.97
21742;BME280;11033;47.490;11.116;2022-08-14T10:23:42;92492.47;;;25.80;41.03
21742;BME280;11033;47.490;11.116;2022-08-14T10:26:13;92492.16;;;25.96;40.40
21742;BME280;11033;47.490;11.116;2022-08-14T10:28:51;92496.28;;;26.07;41.25
21742;BME280;11033;47.490;11.116;2022-08-14T10:36:32;92472.19;;;26.60;39.17
21742;BME280;11033;47.490;11.116;2022-08-14T10:39:06;92468.19;;;26.71;39.63
21742;BME280;11033;47.490;11.116;2022-08-14T10:41:38;92463.25;;;27.09;39.60
21742;BME280;11033;47.490;11.116;2022-08-14T10:44:09;92457.56;;;27.20;39.40
21742;BME280;11033;47.490;11.116;2022-08-14T10:49:20;92455.94;;;27.63;36.45
21742;BME280;11033;47.490;11.116;2022-08-14T10:52:06;92458.25;;;27.78;35.21
21742;BME280;11033;47.490;11.116;2022-08-14T10:57:16;92441.63;;;28.02;36.78
21742;BME280;11033;47.490;11.116;2022-08-14T10:59:54;92440.38;;;28.17;36.32
21742;BME280;11033;47.490;11.116;2022-08-14T11:02:33;92438.53;;;28.35;34.80
21742;BME280;11033;47.490;11.116;2022-08-14T11:05:14;92430.09;;;28.54;36.52
21742;BME280;11033;47.490;11.116;2022-08-14T11:07:55;92428.38;;;28.66;31.71
21742;BME280;11033;47.490;11.116;2022-08-14T11:10:24;92429.66;;;28.86;35.62
21742;BME280;11033;47.490;11.116;2022-08-14T11:12:54;92432.03;;;29.05;34.87
21742;BME280;11033;47.490;11.116;2022-08-14T11:15:23;92428.97;;;29.24;35.67
21742;BME280;11033;47.490;11.116;2022-08-14T11:17:49;92428.34;;;29.44;33.60
21742;BME280;11033;47.490;11.116;2022-08-14T11:20:20;92425.25;;;29.54;33.03
21742;BME280;11033;47.490;11.116;2022-08-14T11:22:53;92417.50;;;29.74;33.77
21742;BME280;11033;47.490;11.116;2022-08-14T11:25:21;92417.13;;;29.92;34.59
21742;BME280;11033;47.490;11.116;2022-08-14T11:27:49;92420.13;;;30.00;32.34
21742;BME280;11033;47.490;11.116;2022-08-14T11:30:18;92417.97;;;30.22;31.44
21742;BME280;11033;47.490;11.116;2022-08-14T11:32:48;92416.91;;;30.36;28.97
21742;BME280;11033;47.490;11.116;2022-08-14T11:35:19;92412.47;;;30.52;31.08
21742;BME280;11033;47.490;11.116;2022-08-14T11:38:11;92409.69;;;30.69;31.98
21742;BME280;11033;47.490;11.116;2022-08-14T11:40:38;92398.66;;;30.86;31.34
21742;BME280;11033;47.490;11.116;2022-08-14T11:43:05;92394.22;;;30.82;28.93
21742;BME280;11033;47.490;11.116;2022-08-14T11:45:36;92403.00;;;31.00;28.78
21742;BME280;11033;47.490;11.116;2022-08-14T11:48:18;92395.34;;;31.14;28.77
21742;BME280;11033;47.490;11.116;2022-08-14T11:50:45;92397.81;;;31.28;30.65
21742;BME280;11033;47.490;11.116;2022-08-14T11:53:27;92401.84;;;31.54;31.32
21742;BME280;11033;47.490;11.116;2022-08-14T11:55:57;92393.25;;;31.65;31.00
21742;BME280;11033;47.490;11.116;2022-08-14T11:58:28;92383.97;;;31.78;30.85
21742;BME280;11033;47.490;11.116;2022-08-14T12:00:57;92384.88;;;31.82;31.38
21742;BME280;11033;47.490;11.116;2022-08-14T12:03:34;92377.19;;;32.08;30.16
21742;BME280;11033;47.490;11.116;2022-08-14T12:06:07;92378.31;;;32.20;30.46
21742;BME280;11033;47.490;11.116;2022-08-14T12:08:34;92382.41;;;32.26;29.98
21742;BME280;11033;47.490;11.116;2022-08-14T12:11:00;92374.78;;;32.31;30.43
21742;BME280;11033;47.490;11.116;2022-08-14T12:13:28;92371.81;;;32.48;31.09
21742;BME280;11033;47.490;11.116;2022-08-14T12:15:58;92374.66;;;32.40;28.48
21742;BME280;11033;47.490;11.116;2022-08-14T12:18:29;92381.00;;;32.56;29.89
21742;BME280;11033;47.490;11.116;2022-08-14T12:20:56;92375.00;;;32.91;30.12
21742;BME280;11033;47.490;11.116;2022-08-14T12:23:24;92363.09;;;33.11;30.62
21742;BME280;11033;47.490;11.116;2022-08-14T12:26:01;92369.75;;;33.26;28.84
21742;BME280;11033;47.490;11.116;2022-08-14T12:28:27;92365.00;;;32.95;27.53
21742;BME280;11033;47.490;11.116;2022-08-14T12:30:52;92363.41;;;33.22;29.66
21742;BME280;11033;47.490;11.116;2022-08-14T12:33:21;92362.69;;;33.53;27.92
21742;BME280;11033;47.490;11.116;2022-08-14T12:35:49;92359.94;;;33.37;24.99
21742;BME280;11033;47.490;11.116;2022-08-14T12:38:15;92363.28;;;33.62;27.70
21742;BME280;11033;47.490;11.116;2022-08-14T12:40:52;92356.25;;;33.77;28.16
21742;BME280;11033;47.490;11.116;2022-08-14T12:43:18;92354.94;;;34.18;26.74
21742;BME280;11033;47.490;11.116;2022-08-14T12:45:47;92352.75;;;34.08;25.96
21742;BME280;11033;47.490;11.116;2022-08-14T12:48:17;92346.84;;;34.06;25.26
21742;BME280;11033;47.490;11.116;2022-08-14T12:50:43;92343.22;;;34.01;25.49
21742;BME280;11033;47.490;11.116;2022-08-14T12:53:10;92348.94;;;34.63;25.43
21742;BME280;11033;47.490;11.116;2022-08-14T12:55:36;92346.56;;;34.61;26.67
21742;BME280;11033;47.490;11.116;2022-08-14T12:58:04;92345.50;;;35.05;27.33
21742;BME280;11033;47.490;11.116;2022-08-14T13:00:32;92346.84;;;34.76;26.91
21742;BME280;11033;47.490;11.116;2022-08-14T13:02:58;92344.53;;;35.55;27.39
21742;BME280;11033;47.490;11.116;2022-08-14T13:05:27;92342.97;;;36.00;26.19
21742;BME280;11033;47.490;11.116;2022-08-14T13:07:57;92342.25;;;36.82;25.54
21742;BME280;11033;47.490;11.116;2022-08-14T13:10:23;92339.66;;;37.63;25.24
21742;BME280;11033;47.490;11.116;2022-08-14T13:12:53;92328.59;;;37.97;24.73
21742;BME280;11033;47.490;11.116;2022-08-14T13:15:19;92327.41;;;37.98;24.22
21742;BME280;11033;47.490;11.116;2022-08-14T13:17:50;92329.44;;;39.32;23.07
21742;BME280;11033;47.490;11.116;2022-08-14T13:20:18;92326.44;;;39.90;23.01
21742;BME280;11033;47.490;11.116;2022-08-14T13:22:44;92319.66;;;39.49;21.65
21742;BME280;11033;47.490;11.116;2022-08-14T13:25:12;92322.88;;;40.61;22.57
21742;BME280;11033;47.490;11.116;2022-08-14T13:27:38;92331.22;;;41.70;21.45
21742;BME280;11033;47.490;11.116;2022-08-14T13:30:06;92325.84;;;42.56;20.56